Kennells Beach, North Carolina
Current Conditions -  °F | °C
As of 2:54 PM on Wednesday 28 Jan 2015 (Local Time) from KEWN Reporting Station
Clear Clear  
Wind Chill: 41°   Ceiling: Unl
Heat Index: 46°   Visibility: 10mi
Dew Point: 10°   Wind: 10mph
Humidity: 23%   Direction: 350°N
Pressure: 30.2"   Gusts: NA
Location:  35.1354°N, 76.8853°W
Report Text: KEWN 281954Z 35009KT 10SM CLR 08/M12 A3020 RMK AO2 SLP226 T00781122
Loading
Personal Weather Stations






























Interactive Weather Map New forecast layout! Learn more

10-Day Weather Forecast

Advertisements
Track Severe Weather on mobile